Time;durP1;ratioP1;P1;durP2;ratioP2;P2;SDS_P1;SDS_P2;PMS_P1;PMS_P2;Temp;Humidity;BMP_temperature;BMP_pressure;BME280_temperature;BME280_humidity;BME280_pressure;Samples;Min_cycle;Max_cycle;Signal;HPM_P1;HPM_P2
2021/08/09 00:02:09;;;;;;;10.52;1.92;;;;;;;18.45;58.55;100393.41;5066425;28;20139;-61
2021/08/09 00:04:38;;;;;;;9.98;2.17;;;;;;;18.37;58.66;100382.97;5056830;28;20580;-61
2021/08/09 00:07:09;;;;;;;6.78;1.92;;;;;;;18.39;58.99;100383.44;5055826;28;20137;-61
2021/08/09 00:09:36;;;;;;;8.07;2.13;;;;;;;18.42;58.60;100389.25;5068760;28;20072;-60
2021/08/09 00:12:04;;;;;;;5.60;2.05;;;;;;;18.44;59.01;100383.28;5071998;28;20048;-60
2021/08/09 00:14:31;;;;;;;9.57;2.08;;;;;;;18.46;58.58;100378.09;5069900;28;20131;-60
2021/08/09 00:16:58;;;;;;;10.75;1.95;;;;;;;18.45;58.93;100377.28;5068317;28;20079;-60
2021/08/09 00:19:25;;;;;;;8.40;2.28;;;;;;;18.29;58.72;100361.19;5065861;28;20072;-60
2021/08/09 00:21:51;;;;;;;14.10;3.08;;;;;;;18.45;58.87;100384.94;5055165;28;20123;-60
2021/08/09 00:24:18;;;;;;;8.13;2.10;;;;;;;18.46;58.89;100386.59;5051767;28;20432;-61
2021/08/09 00:26:45;;;;;;;6.28;1.90;;;;;;;18.46;58.61;100383.75;5054508;28;20076;-61
2021/08/09 00:29:12;;;;;;;11.13;2.10;;;;;;;18.44;58.95;100374.81;5062409;28;20179;-60
2021/08/09 00:31:39;;;;;;;13.05;7.70;;;;;;;18.43;58.86;100390.13;5055738;28;20064;-60
2021/08/09 00:34:06;;;;;;;6.57;3.42;;;;;;;18.42;58.80;100377.13;5062738;28;20072;-60
2021/08/09 00:36:33;;;;;;;3.92;2.60;;;;;;;18.41;58.53;100375.47;5056683;28;20071;-59
2021/08/09 00:39:00;;;;;;;7.72;3.20;;;;;;;18.31;58.79;100358.88;5053531;28;20538;-58
2021/08/09 00:41:26;;;;;;;10.90;5.10;;;;;;;18.12;58.97;100333.81;5058007;28;20586;-58
2021/08/09 00:43:53;;;;;;;9.65;2.30;;;;;;;18.28;58.91;100357.53;5051753;28;20144;-59
2021/08/09 00:46:20;;;;;;;11.52;2.60;;;;;;;18.29;58.88;100364.03;5059936;28;20052;-58
2021/08/09 00:48:47;;;;;;;8.95;2.35;;;;;;;18.28;58.85;100357.53;5066879;28;20044;-59
2021/08/09 00:51:14;;;;;;;8.25;2.47;;;;;;;18.37;58.66;100363.19;5036182;28;20127;-59
2021/08/09 00:53:41;;;;;;;7.25;2.55;;;;;;;18.37;58.90;100355.53;5067463;28;20052;-61
2021/08/09 00:56:09;;;;;;;6.63;1.98;;;;;;;18.21;59.06;100341.09;5054367;28;20116;-61
2021/08/09 00:58:36;;;;;;;6.55;1.67;;;;;;;18.18;58.84;100338.94;5052312;28;20132;-58
2021/08/09 01:01:03;;;;;;;9.32;2.60;;;;;;;18.21;59.27;100345.94;5039553;28;20174;-58
2021/08/09 01:03:30;;;;;;;6.65;1.92;;;;;;;18.32;59.21;100360.53;5049861;28;20492;-59
2021/08/09 01:05:58;;;;;;;4.55;2.03;;;;;;;18.34;59.21;100358.19;5028883;28;20706;-59
2021/08/09 01:08:43;;;;;;;5.18;2.17;;;;;;;18.29;58.79;100353.56;5065074;28;20140;-59
2021/08/09 01:11:31;;;;;;;20.23;3.00;;;;;;;18.18;59.25;100338.94;5067395;28;20061;-59
2021/08/09 01:14:22;;;;;;;10.23;2.72;;;;;;;18.24;59.19;100348.09;5062430;28;20080;-59
2021/08/09 01:16:49;;;;;;;4.32;2.63;;;;;;;18.23;59.18;100346.44;5058476;28;20041;-61
2021/08/09 01:19:23;;;;;;;8.65;2.35;;;;;;;18.26;59.21;100353.41;5058799;28;20041;-61
2021/08/09 01:21:58;;;;;;;11.63;2.38;;;;;;;18.23;59.09;100338.78;5056937;28;20127;-61
2021/08/09 01:24:38;;;;;;;10.73;2.70;;;;;;;17.95;59.16;100298.00;5061058;28;20045;-63
2021/08/09 01:27:20;;;;;;;;;;;;;;;18.19;59.14;100340.63;5059170;28;20159;-62
2021/08/09 01:29:47;;;;;;;5.18;2.25;;;;;;;18.15;59.48;100338.78;5048223;28;19938;-61
2021/08/09 01:32:16;;;;;;;11.70;2.35;;;;;;;17.89;59.36;100296.50;5058865;28;20045;-61
2021/08/09 01:34:43;;;;;;;6.13;2.88;;;;;;;18.07;59.39;100322.69;5059549;28;20140;-62
2021/08/09 01:37:12;;;;;;;4.47;2.35;;;;;;;18.07;59.55;100332.00;5061567;28;20135;-62
2021/08/09 01:39:40;;;;;;;9.00;2.72;;;;;;;18.06;59.74;100338.84;5066535;28;20135;-62
2021/08/09 01:42:08;;;;;;;5.43;2.43;;;;;;;18.01;59.94;100327.69;5061700;28;20072;-62
2021/08/09 01:44:36;;;;;;;9.75;3.08;;;;;;;17.79;59.76;100282.72;5045241;28;20469;-62
2021/08/09 01:47:03;;;;;;;8.27;2.73;;;;;;;18.00;60.05;100314.75;5064783;28;20449;-63
2021/08/09 01:49:31;;;;;;;13.13;3.00;;;;;;;17.98;60.10;100328.38;5074528;28;20135;-62
2021/08/09 01:52:00;;;;;;;6.53;2.17;;;;;;;17.91;60.05;100303.44;5060076;28;20064;-62
2021/08/09 01:54:27;;;;;;;9.77;2.33;;;;;;;18.03;60.14;100314.06;5082934;28;20075;-62
2021/08/09 01:56:54;;;;;;;6.00;2.63;;;;;;;17.97;60.30;100312.59;5068108;28;20131;-63
2021/08/09 01:59:22;;;;;;;6.85;2.65;;;;;;;17.94;60.03;100301.94;5064154;28;20091;-63
2021/08/09 02:01:50;;;;;;;9.55;2.47;;;;;;;17.92;60.09;100296.66;5036973;28;20136;-62
2021/08/09 02:04:19;;;;;;;6.88;2.40;;;;;;;17.83;60.74;100304.31;5053656;28;20044;-61
2021/08/09 02:06:46;;;;;;;8.57;3.28;;;;;;;17.82;60.40;100302.66;5055955;28;20083;-61
2021/08/09 02:09:13;;;;;;;10.80;2.22;;;;;;;17.65;60.84;100283.72;5061495;28;20135;-61
2021/08/09 02:11:44;;;;;;;8.90;2.57;;;;;;;17.64;61.70;100295.34;5063874;28;20156;-67
2021/08/09 02:14:15;;;;;;;8.90;2.63;;;;;;;17.56;61.90;100294.19;5057865;28;20136;-62
2021/08/09 02:16:50;;;;;;;;;;;;;;;17.41;62.42;100281.44;5059103;28;20048;-61
2021/08/09 02:19:53;;;;;;;6.75;3.25;;;;;;;17.29;63.09;100287.72;5062426;28;19960;-61
2021/08/09 02:22:40;;;;;;;11.70;2.70;;;;;;;17.12;63.40;100279.25;5049471;28;20052;-60
2021/08/09 02:25:17;;;;;;;7.03;2.40;;;;;;;17.13;63.83;100291.38;5064510;28;20135;-60
2021/08/09 02:27:47;;;;;;;5.97;2.97;;;;;;;17.09;63.73;100291.19;5053858;28;20076;-60
2021/08/09 02:30:18;;;;;;;6.63;2.40;;;;;;;17.13;63.95;100292.22;5055250;28;20079;-66
2021/08/09 02:32:46;;;;;;;8.47;2.27;;;;;;;17.13;63.65;100282.91;5061876;28;20544;-62
2021/08/09 02:35:17;;;;;;;6.70;2.60;;;;;;;17.13;63.70;100285.72;5067445;28;20048;-62
2021/08/09 02:37:45;;;;;;;9.50;2.90;;;;;;;17.07;63.63;100273.78;5058152;28;20638;-62
2021/08/09 02:40:14;;;;;;;6.17;2.77;;;;;;;17.14;63.90;100281.75;5063828;28;20127;-63
2021/08/09 02:42:41;;;;;;;10.40;2.53;;;;;;;17.18;63.59;100282.75;5071023;28;20413;-62
2021/08/09 02:45:10;;;;;;;6.17;2.70;;;;;;;17.20;63.65;100278.44;5056034;28;20702;-63
2021/08/09 02:47:37;;;;;;;11.30;3.08;;;;;;;17.23;63.48;100277.78;5054859;28;20049;-66
2021/08/09 02:50:08;;;;;;;5.20;2.73;;;;;;;17.39;63.18;100283.72;5062550;28;20076;-64
2021/08/09 02:52:38;;;;;;;10.55;3.20;;;;;;;17.45;62.79;100278.75;5061197;28;20176;-64
2021/08/09 02:55:08;;;;;;;7.40;2.85;;;;;;;17.58;62.71;100291.88;5056765;28;20040;-65
2021/08/09 02:57:38;;;;;;;7.35;2.55;;;;;;;17.61;62.50;100291.22;5060868;28;20179;-65
2021/08/09 03:00:06;;;;;;;8.27;2.83;;;;;;;17.71;62.47;100290.84;5061239;28;20106;-66
2021/08/09 03:02:36;;;;;;;6.17;3.00;;;;;;;17.37;62.32;100240.91;5068247;28;20123;-66
2021/08/09 03:05:06;;;;;;;8.60;2.85;;;;;;;17.79;62.73;100296.84;5052508;28;20053;-64
2021/08/09 03:07:37;;;;;;;10.10;2.65;;;;;;;17.81;62.13;100295.38;5055492;28;20504;-63
2021/08/09 03:10:09;;;;;;;5.38;2.63;;;;;;;17.75;62.40;100274.91;5058654;28;20076;-63
2021/08/09 03:12:36;;;;;;;16.02;5.60;;;;;;;17.80;62.21;100275.91;5075889;28;20088;-62
2021/08/09 03:15:05;;;;;;;10.40;3.22;;;;;;;17.83;62.34;100269.59;5062206;28;20505;-61
2021/08/09 03:17:32;;;;;;;11.93;3.05;;;;;;;17.87;62.12;100288.34;5054236;28;20132;-61
2021/08/09 03:19:59;;;;;;;6.82;3.25;;;;;;;17.84;62.25;100283.38;5069660;28;20144;-63
2021/08/09 03:22:25;;;;;;;6.47;2.95;;;;;;;17.89;62.28;100285.19;5055769;28;20449;-63
2021/08/09 03:24:52;;;;;;;7.28;3.17;;;;;;;17.88;62.23;100292.00;5064603;28;20132;-61
2021/08/09 03:27:19;;;;;;;10.32;3.03;;;;;;;17.86;62.29;100283.03;5069873;28;20041;-61
2021/08/09 03:29:46;;;;;;;6.53;2.80;;;;;;;17.81;62.01;100284.06;5035536;28;20233;-61
2021/08/09 03:32:12;;;;;;;9.73;2.90;;;;;;;17.74;62.27;100276.06;5054183;28;20109;-61
2021/08/09 03:34:39;;;;;;;8.10;2.78;;;;;;;17.72;62.10;100284.03;5058839;28;20167;-61
2021/08/09 03:37:06;;;;;;;8.07;3.00;;;;;;;17.67;62.07;100278.53;5059859;28;20136;-61
2021/08/09 03:39:33;;;;;;;7.68;3.60;;;;;;;17.71;62.37;100292.84;5062524;28;20142;-61
2021/08/09 03:42:00;;;;;;;6.60;2.30;;;;;;;17.67;62.00;100283.38;5065524;28;20124;-60
2021/08/09 03:44:27;;;;;;;15.15;3.15;;;;;;;17.52;62.21;100262.16;5054839;28;20120;-61
2021/08/09 03:46:54;;;;;;;7.07;2.80;;;;;;;17.37;62.18;100243.75;5060088;28;20135;-61
2021/08/09 03:49:20;;;;;;;7.82;2.70;;;;;;;17.63;62.24;100279.56;5067985;28;20123;-61
2021/08/09 03:51:47;;;;;;;7.93;3.17;;;;;;;17.68;62.36;100290.69;5063518;28;20080;-60
2021/08/09 03:54:14;;;;;;;9.07;2.47;;;;;;;17.64;62.39;100290.53;5037084;28;20045;-60
2021/08/09 03:56:41;;;;;;;10.25;3.53;;;;;;;17.48;62.50;100267.63;5041068;28;20049;-61
2021/08/09 03:59:08;;;;;;;6.32;3.08;;;;;;;17.59;62.41;100287.06;5042893;28;20081;-61
2021/08/09 04:01:38;;;;;;;13.70;3.90;;;;;;;17.56;62.53;100288.53;5034759;28;20193;-60
2021/08/09 04:04:06;;;;;;;6.85;3.53;;;;;;;17.52;62.60;100274.25;5045030;28;20435;-60
2021/08/09 04:06:33;;;;;;;9.70;4.10;;;;;;;17.52;62.67;100279.09;5037979;28;20041;-61
2021/08/09 04:09:00;;;;;;;8.95;3.05;;;;;;;17.35;62.18;100270.63;5037843;28;20124;-59
2021/08/09 04:11:27;;;;;;;13.27;3.70;;;;;;;17.38;62.51;100286.91;5038302;28;20045;-59
2021/08/09 04:13:56;;;;;;;10.75;3.38;;;;;;;17.35;62.53;100290.38;5035837;28;20495;-60
2021/08/09 04:16:25;;;;;;;12.43;3.75;;;;;;;17.33;62.54;100292.69;5040177;28;20079;-60
2021/08/09 04:18:51;;;;;;;7.82;3.63;;;;;;;17.29;62.67;100293.38;5033028;28;20140;-60
2021/08/09 04:21:19;;;;;;;10.18;3.50;;;;;;;17.26;62.39;100291.22;5013932;28;20045;-60
2021/08/09 04:23:46;;;;;;;6.75;3.17;;;;;;;17.21;62.41;100290.56;5030748;28;20176;-62
2021/08/09 04:26:13;;;;;;;9.73;3.47;;;;;;;17.15;62.57;100287.06;5044621;28;20467;-62
2021/08/09 04:28:40;;;;;;;8.80;3.80;;;;;;;17.16;62.39;100297.22;5037711;28;20041;-63
2021/08/09 04:31:07;;;;;;;13.00;4.95;;;;;;;17.05;62.77;100276.09;5035753;28;20077;-62
2021/08/09 04:33:45;;;;;;;14.93;4.17;;;;;;;17.17;62.46;100300.84;5042318;28;20049;-62
2021/08/09 04:36:13;;;;;;;11.03;3.57;;;;;;;17.18;62.78;100299.69;5042179;28;20132;-62
2021/08/09 04:38:40;;;;;;;8.50;3.30;;;;;;;17.14;62.75;100298.69;5036177;28;20463;-62
2021/08/09 04:41:10;;;;;;;16.10;4.22;;;;;;;17.13;63.03;100297.88;5036960;28;20129;-61
2021/08/09 04:43:38;;;;;;;5.85;3.47;;;;;;;17.07;63.18;100287.91;5048780;28;20051;-60
2021/08/09 04:46:06;;;;;;;12.88;3.55;;;;;;;17.09;63.13;100282.72;5037981;28;20695;-59
2021/08/09 04:48:33;;;;;;;7.53;4.00;;;;;;;17.18;63.05;100294.88;5024042;28;20043;-59
2021/08/09 04:51:00;;;;;;;13.80;4.05;;;;;;;17.19;62.81;100296.50;5065104;28;20136;-59
2021/08/09 04:53:27;;;;;;;10.23;3.57;;;;;;;17.17;63.11;100298.84;5063408;28;20087;-60
2021/08/09 04:55:54;;;;;;;7.00;3.63;;;;;;;17.20;63.14;100315.13;5057928;28;20435;-61
2021/08/09 04:58:21;;;;;;;6.60;3.43;;;;;;;17.15;62.99;100312.47;5059069;28;20128;-62
2021/08/09 05:00:48;;;;;;;13.45;3.83;;;;;;;16.84;62.86;100252.53;5063790;28;20048;-61
2021/08/09 05:03:15;;;;;;;15.68;3.88;;;;;;;17.19;62.96;100309.81;5054094;28;20074;-63
2021/08/09 05:05:43;;;;;;;6.72;3.53;;;;;;;17.22;63.10;100311.97;5045021;28;20080;-69
2021/08/09 05:08:11;;;;;;;11.07;3.92;;;;;;;17.10;62.83;100298.53;5037535;28;20123;-60
2021/08/09 05:10:38;;;;;;;6.20;3.40;;;;;;;17.16;63.01;100305.66;5057109;28;20136;-61
2021/08/09 05:13:05;;;;;;;7.53;3.70;;;;;;;17.17;63.07;100310.16;5057937;28;20095;-60
2021/08/09 05:15:32;;;;;;;12.43;3.60;;;;;;;17.17;63.25;100314.97;5053406;28;20536;-60
2021/08/09 05:17:59;;;;;;;11.40;3.83;;;;;;;17.16;63.33;100319.78;5051433;28;20052;-64
2021/08/09 05:20:26;;;;;;;10.35;3.60;;;;;;;17.09;63.45;100299.66;5056813;28;20067;-60
2021/08/09 05:22:53;;;;;;;5.10;2.97;;;;;;;17.12;63.41;100307.47;5060537;28;20140;-61
2021/08/09 05:25:23;;;;;;;7.38;3.47;;;;;;;17.19;63.12;100313.44;5052547;28;20048;-64
2021/08/09 05:27:50;;;;;;;7.43;3.38;;;;;;;17.18;63.10;100316.63;5057660;28;20055;-60
2021/08/09 05:30:18;;;;;;;8.00;3.15;;;;;;;17.14;63.47;100316.44;5067874;28;20078;-66
2021/08/09 05:32:44;;;;;;;13.13;3.87;;;;;;;17.14;63.10;100318.44;5054179;28;20573;-67
2021/08/09 05:35:11;;;;;;;12.13;4.72;;;;;;;17.13;63.54;100313.94;5064701;28;20132;-68
2021/08/09 05:37:38;;;;;;;10.25;3.88;;;;;;;17.10;63.31;100312.63;5063045;28;20132;-69
2021/08/09 05:40:07;;;;;;;13.13;4.63;;;;;;;17.07;63.57;100313.28;5055535;28;20040;-74
2021/08/09 05:42:34;;;;;;;6.30;3.50;;;;;;;17.02;63.73;100324.72;5056117;28;20132;-68
2021/08/09 05:45:00;;;;;;;10.30;4.87;;;;;;;16.96;63.49;100314.78;5052970;28;20640;-71
2021/08/09 05:47:28;;;;;;;10.47;3.53;;;;;;;16.95;63.59;100327.19;5065614;28;20579;-61
2021/08/09 05:49:56;;;;;;;5.97;3.73;;;;;;;16.91;63.87;100309.28;5061972;28;20567;-70
2021/08/09 05:52:25;;;;;;;7.22;3.67;;;;;;;16.98;63.94;100323.72;5054788;28;20560;-70
2021/08/09 05:54:52;;;;;;;8.53;3.07;;;;;;;16.93;63.87;100326.72;5056206;28;20202;-68
2021/08/09 05:57:20;;;;;;;5.50;3.00;;;;;;;17.00;63.64;100332.69;5063361;28;20041;-70
2021/08/09 05:59:46;;;;;;;9.70;3.43;;;;;;;16.88;63.76;100324.03;5067221;28;20077;-70
2021/08/09 06:02:13;;;;;;;9.27;3.33;;;;;;;16.96;63.88;100326.06;5054105;28;20091;-71
2021/08/09 06:04:41;;;;;;;6.00;2.83;;;;;;;16.98;63.63;100332.19;5060140;28;20124;-69
2021/08/09 06:07:15;;;;;;;8.97;3.13;;;;;;;16.86;63.58;100332.84;5052738;28;20052;-69
2021/08/09 06:09:43;;;;;;;10.00;2.97;;;;;;;16.87;63.76;100344.94;5062465;28;20183;-69
2021/08/09 06:12:12;;;;;;;12.18;2.88;;;;;;;16.83;63.79;100341.13;5056619;28;20144;-70
2021/08/09 06:14:39;;;;;;;10.27;3.03;;;;;;;16.72;63.97;100323.66;5057179;28;20147;-70
2021/08/09 06:17:07;;;;;;;6.65;3.67;;;;;;;16.68;64.40;100322.63;5060956;28;20063;-70
2021/08/09 06:19:35;;;;;;;10.80;3.30;;;;;;;16.72;64.20;100332.94;5053210;28;20143;-70
2021/08/09 06:22:03;;;;;;;10.35;3.42;;;;;;;16.70;64.23;100315.50;5058631;28;20048;-70
2021/08/09 06:24:30;;;;;;;7.47;3.80;;;;;;;16.90;64.09;100333.00;5054770;28;20110;-70
2021/08/09 06:26:57;;;;;;;6.83;3.07;;;;;;;16.94;64.66;100354.56;5058492;28;20487;-69
2021/08/09 06:29:24;;;;;;;7.40;3.40;;;;;;;16.98;64.17;100337.81;5049570;28;20037;-69
2021/08/09 06:31:51;;;;;;;6.22;2.90;;;;;;;17.02;64.25;100342.47;5057873;28;20076;-69
2021/08/09 06:34:18;;;;;;;15.77;4.47;;;;;;;17.13;64.03;100353.44;5053338;28;20048;-69
2021/08/09 06:36:45;;;;;;;6.57;3.03;;;;;;;17.20;63.77;100349.00;5058934;28;20131;-68
2021/08/09 06:39:18;;;;;;;7.20;3.13;;;;;;;17.37;63.81;100344.53;5052103;28;20132;-69
2021/08/09 06:41:45;;;;;;;9.95;3.60;;;;;;;17.53;63.59;100345.66;5046753;28;20072;-69
2021/08/09 06:44:12;;;;;;;10.07;3.50;;;;;;;17.57;63.46;100355.13;5055737;28;20135;-69
2021/08/09 06:46:39;;;;;;;6.57;3.50;;;;;;;17.39;63.22;100317.59;5066738;28;20492;-69
2021/08/09 06:49:06;;;;;;;8.48;3.88;;;;;;;17.48;63.01;100331.75;5060048;28;20124;-69
2021/08/09 06:51:33;;;;;;;9.75;3.20;;;;;;;17.40;63.17;100330.59;5050359;28;20467;-69
2021/08/09 06:54:00;;;;;;;7.78;3.22;;;;;;;17.48;62.83;100331.75;5058826;28;20195;-69
2021/08/09 06:56:27;;;;;;;7.47;4.00;;;;;;;17.68;62.80;100355.66;5053868;28;20517;-68
2021/08/09 06:58:54;;;;;;;12.85;4.53;;;;;;;17.71;62.85;100346.50;5045964;28;20119;-68
2021/08/09 07:01:22;;;;;;;9.15;3.88;;;;;;;17.90;62.79;100358.31;5057166;28;20068;-69
2021/08/09 07:03:50;;;;;;;12.73;6.05;;;;;;;17.89;62.26;100336.06;5026824;28;20063;-69
2021/08/09 07:06:22;;;;;;;12.82;4.55;;;;;;;18.12;62.46;100362.06;5058090;28;20055;-67
2021/08/09 07:08:50;;;;;;;9.00;4.35;;;;;;;17.90;61.85;100306.63;5068868;28;20066;-68
2021/08/09 07:11:18;;;;;;;6.85;3.70;;;;;;;18.13;62.09;100341.97;5070434;28;20132;-68
2021/08/09 07:13:46;;;;;;;9.63;3.92;;;;;;;18.18;61.95;100355.91;5065907;28;20128;-68
2021/08/09 07:16:12;;;;;;;10.40;4.45;;;;;;;18.27;62.41;100363.56;5064926;28;20122;-67
2021/08/09 07:18:40;;;;;;;11.23;4.82;;;;;;;18.31;61.92;100364.53;5066480;28;20048;-68
2021/08/09 07:21:10;;;;;;;8.85;4.05;;;;;;;18.30;62.14;100357.22;5054313;28;20131;-68
2021/08/09 07:23:38;;;;;;;11.95;4.60;;;;;;;18.37;62.36;100364.00;5072267;28;20123;-69
2021/08/09 07:26:05;;;;;;;10.40;4.22;;;;;;;18.45;62.17;100371.63;5036207;28;20079;-68
2021/08/09 07:28:32;;;;;;;9.15;3.85;;;;;;;18.53;62.48;100372.78;5068563;28;20044;-69
2021/08/09 07:31:00;;;;;;;12.30;4.05;;;;;;;18.58;62.08;100372.56;5048560;28;20123;-69
2021/08/09 07:33:27;;;;;;;9.98;4.50;;;;;;;18.65;62.41;100375.72;5054313;28;20059;-69
2021/08/09 07:35:54;;;;;;;11.52;4.53;;;;;;;18.77;62.35;100379.84;5053384;28;20059;-69
2021/08/09 07:38:21;;;;;;;8.10;3.90;;;;;;;18.80;61.77;100377.16;5055692;28;20047;-69
2021/08/09 07:40:48;;;;;;;13.38;4.43;;;;;;;18.97;61.65;100396.03;5059100;28;20050;-68
2021/08/09 07:43:15;;;;;;;17.98;4.40;;;;;;;19.00;61.56;100388.88;5048510;28;20089;-68
2021/08/09 07:45:42;;;;;;;9.13;4.30;;;;;;;19.21;61.54;100394.59;5050430;28;20045;-68
2021/08/09 07:48:13;;;;;;;11.00;4.15;;;;;;;19.56;61.19;100373.34;5063174;28;20091;-68
2021/08/09 07:50:41;;;;;;;6.38;3.65;;;;;;;19.75;60.52;100378.53;5059344;28;20048;-69
2021/08/09 07:53:09;;;;;;;9.88;4.05;;;;;;;19.98;60.25;100398.84;5058027;28;20088;-69
2021/08/09 07:55:36;;;;;;;9.35;4.80;;;;;;;19.98;60.03;100400.84;5056083;28;20527;-69
2021/08/09 07:58:02;;;;;;;11.63;4.32;;;;;;;20.03;60.01;100406.28;5070017;28;20500;-69
2021/08/09 08:00:29;;;;;;;13.18;4.93;;;;;;;20.06;59.75;100411.28;5061831;28;20478;-69
2021/08/09 08:02:56;;;;;;;9.75;4.68;;;;;;;20.03;59.81;100412.81;5052130;28;20114;-69
2021/08/09 08:05:23;;;;;;;14.52;4.75;;;;;;;20.01;59.98;100417.16;5058741;28;22230;-69
2021/08/09 08:07:50;;;;;;;11.15;4.70;;;;;;;20.02;59.86;100394.13;5058111;28;20079;-68
2021/08/09 08:10:18;;;;;;;10.95;5.20;;;;;;;20.25;59.39;100396.59;5043463;28;20040;-69
2021/08/09 08:12:45;;;;;;;11.50;4.68;;;;;;;20.12;58.98;100353.19;5061239;28;20136;-69
2021/08/09 08:15:12;;;;;;;10.57;4.32;;;;;;;20.30;58.98;100394.34;5053356;28;20045;-69
2021/08/09 08:17:39;;;;;;;13.48;4.50;;;;;;;20.51;59.00;100400.00;5064109;28;20423;-69
2021/08/09 08:20:07;;;;;;;16.80;4.68;;;;;;;20.72;58.37;100371.53;5071278;28;20079;-69
2021/08/09 08:22:33;;;;;;;12.35;4.63;;;;;;;21.11;57.73;100399.56;5071098;28;20119;-70
2021/08/09 08:25:00;;;;;;;10.18;4.57;;;;;;;21.39;57.26;100400.50;5071923;28;20090;-70
2021/08/09 08:27:27;;;;;;;10.23;4.40;;;;;;;21.75;56.69;100404.47;5046506;28;20571;-70
2021/08/09 08:29:54;;;;;;;9.55;4.28;;;;;;;22.56;56.05;100402.31;5071801;28;20049;-69
2021/08/09 08:32:21;;;;;;;11.38;5.07;;;;;;;23.15;54.80;100394.91;5071189;28;20135;-69
2021/08/09 08:34:49;;;;;;;14.75;5.28;;;;;;;23.48;54.21;100390.78;5071198;28;20055;-69
2021/08/09 08:37:15;;;;;;;16.92;4.57;;;;;;;23.73;53.56;100392.22;5069545;28;20440;-69
2021/08/09 08:39:42;;;;;;;10.50;4.53;;;;;;;23.89;52.66;100395.81;5070030;28;20127;-70
2021/08/09 08:42:13;;;;;;;12.55;5.00;;;;;;;23.77;52.65;100395.97;5075909;28;20509;-69
2021/08/09 08:44:40;;;;;;;12.15;3.97;;;;;;;23.67;52.54;100415.66;5061583;28;20079;-69
2021/08/09 08:47:08;;;;;;;17.30;5.20;;;;;;;23.45;52.71;100428.56;5051643;28;20055;-69
2021/08/09 08:49:35;;;;;;;20.45;5.00;;;;;;;23.08;53.09;100426.09;5061755;28;20135;-69
2021/08/09 08:52:04;;;;;;;14.35;5.05;;;;;;;22.58;53.15;100390.59;5070912;28;20079;-69
2021/08/09 08:54:32;;;;;;;15.35;4.20;;;;;;;22.36;53.75;100403.38;5071516;28;20471;-69
2021/08/09 08:56:58;;;;;;;13.02;4.40;;;;;;;22.41;53.35;100423.06;5070563;28;20071;-69
2021/08/09 08:59:25;;;;;;;9.57;4.25;;;;;;;22.49;53.19;100436.28;5052747;28;20135;-69
2021/08/09 09:01:52;;;;;;;17.60;5.28;;;;;;;22.24;53.44;100427.03;5037133;28;20136;-69
2021/08/09 09:04:19;;;;;;;11.27;4.32;;;;;;;22.25;53.50;100440.06;5051735;28;20124;-69
2021/08/09 09:06:46;;;;;;;13.27;4.68;;;;;;;22.16;53.70;100422.34;5051559;28;20141;-69
2021/08/09 09:09:23;;;;;;;13.55;4.47;;;;;;;21.97;53.67;100426.63;5039409;28;20552;-69
2021/08/09 09:11:50;;;;;;;11.25;4.53;;;;;;;21.81;53.97;100434.25;5073371;28;20079;-68
2021/08/09 09:14:31;;;;;;;9.80;3.47;;;;;;;21.61;54.47;100438.13;5061390;28;20519;-69
2021/08/09 09:17:01;;;;;;;13.68;3.97;;;;;;;21.62;54.51;100454.00;5056002;28;20040;-68
2021/08/09 09:19:38;;;;;;;11.95;5.10;;;;;;;21.62;54.59;100436.94;5057566;28;20060;-70
2021/08/09 09:22:20;;;;;;;9.60;4.07;;;;;;;21.67;54.58;100439.53;5059691;28;20136;-69
2021/08/09 09:24:52;;;;;;;9.68;4.60;;;;;;;21.74;54.70;100434.06;5041477;28;20127;-69
2021/08/09 09:27:30;;;;;;;10.25;4.28;;;;;;;21.93;54.35;100413.53;5052517;28;20515;-68
2021/08/09 09:29:58;;;;;;;8.00;3.80;;;;;;;22.32;53.61;100368.31;5059554;28;20080;-68
2021/08/09 09:32:25;;;;;;;11.48;4.93;;;;;;;22.87;53.11;100412.91;5054770;28;20521;-68
2021/08/09 09:34:54;;;;;;;12.32;5.03;;;;;;;22.96;52.80;100404.22;5060688;28;20041;-68
2021/08/09 09:37:28;;;;;;;19.98;4.95;;;;;;;22.98;53.01;100430.31;5060193;28;20041;-69
2021/08/09 09:40:15;;;;;;;11.77;4.65;;;;;;;22.89;52.89;100430.44;5063319;28;20040;-68
2021/08/09 09:42:42;;;;;;;7.90;4.00;;;;;;;22.84;52.63;100436.44;5066033;28;20135;-68
2021/08/09 09:45:29;;;;;;;12.55;4.45;;;;;;;22.86;52.91;100422.63;5060666;28;20454;-67
2021/08/09 09:48:05;;;;;;;9.23;3.85;;;;;;;22.83;52.66;100426.22;5057292;28;20073;-68
2021/08/09 09:50:34;;;;;;;12.30;4.50;;;;;;;22.83;52.57;100422.53;5060894;28;20072;-68
2021/08/09 09:53:19;;;;;;;10.82;4.47;;;;;;;22.49;52.90;100382.22;5043815;28;20068;-69
2021/08/09 09:55:48;;;;;;;18.35;4.13;;;;;;;22.73;53.04;100414.53;5055802;28;20095;-68
2021/08/09 09:58:18;;;;;;;9.75;3.90;;;;;;;22.79;53.36;100408.22;5054392;28;20045;-71
2021/08/09 10:00:46;;;;;;;8.15;4.53;;;;;;;23.42;52.60;100433.84;5059958;28;20551;-71
2021/08/09 10:03:13;;;;;;;10.30;4.78;;;;;;;24.20;51.81;100433.13;5054813;28;20121;-72
2021/08/09 10:05:42;;;;;;;9.80;3.80;;;;;;;24.99;50.43;100435.47;5052461;28;20045;-71
2021/08/09 10:08:19;;;;;;;12.30;4.60;;;;;;;25.69;49.35;100440.72;5059857;28;20049;-72
2021/08/09 10:10:48;;;;;;;10.85;5.05;;;;;;;25.95;48.69;100454.19;5056259;28;20049;-70
2021/08/09 10:13:20;;;;;;;9.27;4.30;;;;;;;25.84;48.18;100449.53;5055996;28;20129;-70
2021/08/09 10:15:54;;;;;;;9.20;3.78;;;;;;;25.68;48.24;100444.78;5059510;28;20040;-71
2021/08/09 10:18:31;;;;;;;10.38;4.15;;;;;;;25.70;48.42;100424.38;5038501;28;20040;-71
2021/08/09 10:21:02;;;;;;;11.82;3.80;;;;;;;26.02;48.14;100441.19;5054777;28;20119;-72
2021/08/09 10:23:39;;;;;;;7.63;3.40;;;;;;;26.23;47.61;100438.63;5052602;28;20431;-72
2021/08/09 10:26:08;;;;;;;7.85;4.90;;;;;;;26.51;46.93;100443.06;5059146;28;20986;-72
2021/08/09 10:28:54;;;;;;;11.77;4.22;;;;;;;26.83;47.04;100443.38;5061285;28;20465;-72
2021/08/09 10:31:30;;;;;;;9.50;4.07;;;;;;;27.15;46.34;100438.81;5055042;28;20483;-72
2021/08/09 10:33:59;;;;;;;8.63;4.72;;;;;;;27.39;45.47;100445.16;5055709;28;20436;-72
2021/08/09 10:36:27;;;;;;;10.88;5.13;;;;;;;27.68;45.23;100445.34;5055094;28;20071;-71
2021/08/09 10:39:00;;;;;;;13.90;5.00;;;;;;;27.93;44.89;100434.84;5055367;28;20161;-72
2021/08/09 10:41:31;;;;;;;8.02;4.85;;;;;;;27.93;44.54;100440.59;5065652;28;20487;-71
2021/08/09 10:44:07;;;;;;;14.60;4.85;;;;;;;27.75;44.58;100439.66;5059919;28;20041;-71
2021/08/09 10:46:36;;;;;;;12.70;4.18;;;;;;;27.70;44.46;100437.16;5057309;28;20045;-70
2021/08/09 10:49:04;;;;;;;8.32;4.00;;;;;;;27.61;44.37;100429.72;5053829;28;20504;-71
2021/08/09 10:51:52;;;;;;;12.32;3.53;;;;;;;27.67;44.54;100437.97;5053121;28;20556;-71
2021/08/09 10:54:34;;;;;;;10.20;4.00;;;;;;;27.70;44.40;100434.31;5062423;28;20052;-71
2021/08/09 10:57:03;;;;;;;7.13;3.97;;;;;;;27.92;43.79;100436.09;5044150;28;20057;-72
2021/08/09 10:59:49;;;;;;;8.15;3.40;;;;;;;27.88;43.99;100435.25;5052581;28;20117;-71
2021/08/09 11:02:21;;;;;;;10.90;4.20;;;;;;;27.82;43.74;100448.31;5062947;28;20456;-72
2021/08/09 11:05:17;;;;;;;7.88;3.63;;;;;;;27.64;44.07;100460.47;5058196;28;20077;-71
2021/08/09 11:07:46;;;;;;;5.43;2.90;;;;;;;27.49;43.64;100455.88;5038466;28;20041;-71
2021/08/09 11:10:13;;;;;;;9.60;3.80;;;;;;;27.38;43.98;100460.69;5054691;28;20087;-73
2021/08/09 11:13:00;;;;;;;11.52;4.38;;;;;;;27.33;44.32;100430.34;5055970;28;20447;-72
2021/08/09 11:15:28;;;;;;;14.43;4.50;;;;;;;27.38;44.64;100426.28;5056570;28;20080;-72
2021/08/09 11:17:57;;;;;;;10.57;4.75;;;;;;;27.83;44.28;100447.13;5055289;28;20400;-73
2021/08/09 11:20:25;;;;;;;10.27;3.70;;;;;;;27.92;43.82;100447.56;5065191;28;20162;-72
2021/08/09 11:23:07;;;;;;;10.57;4.90;;;;;;;28.06;43.72;100438.19;5060685;28;20036;-72
2021/08/09 11:25:48;;;;;;;17.70;4.72;;;;;;;27.98;43.78;100445.16;5057015;28;20086;-72
2021/08/09 11:28:21;;;;;;;11.43;5.00;;;;;;;27.85;43.43;100444.66;5060322;28;20067;-72
2021/08/09 11:31:14;;;;;;;15.20;6.45;;;;;;;27.74;43.58;100447.44;5053653;28;20075;-71
2021/08/09 11:33:42;;;;;;;11.70;4.78;;;;;;;27.62;43.80;100459.22;5047875;28;20407;-72